sensor_id;sensor_type;location;lat;lon;timestamp;P1;durP1;ratioP1;P2;durP2;ratioP2
41179;SDS011;26913;48.240;16.496;2023-02-28T00:01:06;12.67;;;6.93;;
41179;SDS011;26913;48.240;16.496;2023-02-28T00:03:32;14.90;;;7.73;;
41179;SDS011;26913;48.240;16.496;2023-02-28T00:06:00;12.57;;;7.00;;
41179;SDS011;26913;48.240;16.496;2023-02-28T00:08:27;12.03;;;7.67;;
41179;SDS011;26913;48.240;16.496;2023-02-28T00:10:53;14.50;;;7.57;;
41179;SDS011;26913;48.240;16.496;2023-02-28T00:13:18;9.77;;;6.87;;
41179;SDS011;26913;48.240;16.496;2023-02-28T00:15:46;10.60;;;7.70;;
41179;SDS011;26913;48.240;16.496;2023-02-28T00:18:12;12.43;;;7.57;;
41179;SDS011;26913;48.240;16.496;2023-02-28T00:20:38;10.97;;;7.80;;
41179;SDS011;26913;48.240;16.496;2023-02-28T00:23:04;14.37;;;8.37;;
41179;SDS011;26913;48.240;16.496;2023-02-28T00:25:29;15.47;;;8.07;;
41179;SDS011;26913;48.240;16.496;2023-02-28T00:27:55;10.97;;;8.17;;
41179;SDS011;26913;48.240;16.496;2023-02-28T00:30:21;15.07;;;9.40;;
41179;SDS011;26913;48.240;16.496;2023-02-28T00:32:48;13.33;;;8.70;;
41179;SDS011;26913;48.240;16.496;2023-02-28T00:35:14;13.97;;;8.30;;
41179;SDS011;26913;48.240;16.496;2023-02-28T00:37:39;13.33;;;8.33;;
41179;SDS011;26913;48.240;16.496;2023-02-28T00:40:05;13.73;;;7.83;;
41179;SDS011;26913;48.240;16.496;2023-02-28T00:42:32;12.67;;;7.50;;
41179;SDS011;26913;48.240;16.496;2023-02-28T00:44:58;11.63;;;7.17;;
41179;SDS011;26913;48.240;16.496;2023-02-28T00:47:24;13.40;;;8.10;;
41179;SDS011;26913;48.240;16.496;2023-02-28T00:49:50;11.23;;;7.97;;
41179;SDS011;26913;48.240;16.496;2023-02-28T00:52:15;12.23;;;8.10;;
41179;SDS011;26913;48.240;16.496;2023-02-28T00:54:41;15.00;;;8.57;;
41179;SDS011;26913;48.240;16.496;2023-02-28T00:57:06;15.67;;;8.50;;
41179;SDS011;26913;48.240;16.496;2023-02-28T00:59:32;12.50;;;8.40;;
41179;SDS011;26913;48.240;16.496;2023-02-28T01:01:57;16.70;;;8.97;;
41179;SDS011;26913;48.240;16.496;2023-02-28T01:04:23;12.43;;;8.40;;
41179;SDS011;26913;48.240;16.496;2023-02-28T01:06:49;15.43;;;8.60;;
41179;SDS011;26913;48.240;16.496;2023-02-28T01:09:14;17.73;;;9.77;;
41179;SDS011;26913;48.240;16.496;2023-02-28T01:11:40;14.23;;;8.40;;
41179;SDS011;26913;48.240;16.496;2023-02-28T01:14:09;16.90;;;9.33;;
41179;SDS011;26913;48.240;16.496;2023-02-28T01:16:37;13.07;;;8.77;;
41179;SDS011;26913;48.240;16.496;2023-02-28T01:19:03;14.63;;;9.33;;
41179;SDS011;26913;48.240;16.496;2023-02-28T01:21:28;13.27;;;9.07;;
41179;SDS011;26913;48.240;16.496;2023-02-28T01:23:56;14.37;;;8.97;;
41179;SDS011;26913;48.240;16.496;2023-02-28T01:26:22;17.33;;;9.40;;
41179;SDS011;26913;48.240;16.496;2023-02-28T01:28:48;14.57;;;8.17;;
41179;SDS011;26913;48.240;16.496;2023-02-28T01:31:15;15.67;;;9.57;;
41179;SDS011;26913;48.240;16.496;2023-02-28T01:33:40;13.40;;;8.73;;
41179;SDS011;26913;48.240;16.496;2023-02-28T01:36:10;13.70;;;8.70;;
41179;SDS011;26913;48.240;16.496;2023-02-28T01:38:36;16.63;;;9.83;;
41179;SDS011;26913;48.240;16.496;2023-02-28T01:41:02;15.83;;;9.17;;
41179;SDS011;26913;48.240;16.496;2023-02-28T01:45:58;15.27;;;9.60;;
41179;SDS011;26913;48.240;16.496;2023-02-28T01:48:25;15.73;;;10.00;;
41179;SDS011;26913;48.240;16.496;2023-02-28T01:50:52;16.23;;;9.03;;
41179;SDS011;26913;48.240;16.496;2023-02-28T01:53:19;14.17;;;9.23;;
41179;SDS011;26913;48.240;16.496;2023-02-28T01:55:50;14.03;;;8.93;;
41179;SDS011;26913;48.240;16.496;2023-02-28T01:58:17;12.63;;;8.80;;
41179;SDS011;26913;48.240;16.496;2023-02-28T02:00:43;14.23;;;8.63;;
41179;SDS011;26913;48.240;16.496;2023-02-28T02:03:09;13.90;;;8.90;;
41179;SDS011;26913;48.240;16.496;2023-02-28T02:05:37;18.80;;;9.63;;
41179;SDS011;26913;48.240;16.496;2023-02-28T02:08:16;17.20;;;9.57;;
41179;SDS011;26913;48.240;16.496;2023-02-28T02:10:53;12.70;;;8.90;;
41179;SDS011;26913;48.240;16.496;2023-02-28T02:18:58;11.63;;;8.40;;
41179;SDS011;26913;48.240;16.496;2023-02-28T02:40:59;12.27;;;9.00;;
41179;SDS011;26913;48.240;16.496;2023-02-28T02:43:33;13.65;;;8.55;;
41179;SDS011;26913;48.240;16.496;2023-02-28T02:46:05;17.47;;;9.30;;
41179;SDS011;26913;48.240;16.496;2023-02-28T02:48:35;13.07;;;9.52;;
41179;SDS011;26913;48.240;16.496;2023-02-28T02:51:05;14.97;;;10.03;;
41179;SDS011;26913;48.240;16.496;2023-02-28T02:53:47;15.87;;;10.03;;
41179;SDS011;26913;48.240;16.496;2023-02-28T02:56:15;16.37;;;9.50;;
41179;SDS011;26913;48.240;16.496;2023-02-28T02:58:43;13.77;;;8.83;;
41179;SDS011;26913;48.240;16.496;2023-02-28T03:01:14;14.30;;;9.13;;
41179;SDS011;26913;48.240;16.496;2023-02-28T03:03:41;14.53;;;10.00;;
41179;SDS011;26913;48.240;16.496;2023-02-28T03:06:06;14.67;;;9.40;;
41179;SDS011;26913;48.240;16.496;2023-02-28T03:08:36;14.30;;;9.43;;
41179;SDS011;26913;48.240;16.496;2023-02-28T03:11:09;15.40;;;8.70;;
41179;SDS011;26913;48.240;16.496;2023-02-28T03:13:54;17.70;;;9.63;;
41179;SDS011;26913;48.240;16.496;2023-02-28T03:16:39;15.03;;;9.37;;
41179;SDS011;26913;48.240;16.496;2023-02-28T03:21:43;17.67;;;9.75;;
41179;SDS011;26913;48.240;16.496;2023-02-28T03:24:23;15.30;;;10.17;;
41179;SDS011;26913;48.240;16.496;2023-02-28T03:26:57;14.80;;;9.77;;
41179;SDS011;26913;48.240;16.496;2023-02-28T03:29:28;17.77;;;9.93;;
41179;SDS011;26913;48.240;16.496;2023-02-28T03:34:50;14.93;;;9.77;;
41179;SDS011;26913;48.240;16.496;2023-02-28T03:37:22;16.07;;;10.13;;
41179;SDS011;26913;48.240;16.496;2023-02-28T03:39:50;13.83;;;9.07;;
41179;SDS011;26913;48.240;16.496;2023-02-28T03:42:31;16.00;;;9.63;;
41179;SDS011;26913;48.240;16.496;2023-02-28T03:45:00;17.83;;;10.97;;
41179;SDS011;26913;48.240;16.496;2023-02-28T03:47:35;15.27;;;9.43;;
41179;SDS011;26913;48.240;16.496;2023-02-28T03:50:08;14.07;;;9.43;;
41179;SDS011;26913;48.240;16.496;2023-02-28T03:52:40;17.30;;;9.25;;
41179;SDS011;26913;48.240;16.496;2023-02-28T03:55:13;15.95;;;9.25;;
41179;SDS011;26913;48.240;16.496;2023-02-28T03:57:43;15.47;;;9.23;;
41179;SDS011;26913;48.240;16.496;2023-02-28T04:00:34;18.63;;;10.73;;
41179;SDS011;26913;48.240;16.496;2023-02-28T04:05:29;14.67;;;8.53;;
41179;SDS011;26913;48.240;16.496;2023-02-28T04:08:03;14.53;;;8.37;;
41179;SDS011;26913;48.240;16.496;2023-02-28T04:10:29;14.45;;;9.23;;
41179;SDS011;26913;48.240;16.496;2023-02-28T04:12:55;15.83;;;10.30;;
41179;SDS011;26913;48.240;16.496;2023-02-28T04:15:20;14.37;;;9.20;;
41179;SDS011;26913;48.240;16.496;2023-02-28T04:17:48;19.27;;;9.50;;
41179;SDS011;26913;48.240;16.496;2023-02-28T04:20:13;15.80;;;10.27;;
41179;SDS011;26913;48.240;16.496;2023-02-28T04:22:39;19.27;;;11.70;;
41179;SDS011;26913;48.240;16.496;2023-02-28T04:25:04;16.77;;;9.67;;
41179;SDS011;26913;48.240;16.496;2023-02-28T04:27:33;14.33;;;9.90;;
41179;SDS011;26913;48.240;16.496;2023-02-28T04:29:59;15.63;;;9.23;;
41179;SDS011;26913;48.240;16.496;2023-02-28T04:32:25;19.90;;;11.17;;
41179;SDS011;26913;48.240;16.496;2023-02-28T04:34:50;16.93;;;10.53;;
41179;SDS011;26913;48.240;16.496;2023-02-28T04:37:16;18.03;;;10.13;;
41179;SDS011;26913;48.240;16.496;2023-02-28T04:39:41;16.43;;;10.33;;
41179;SDS011;26913;48.240;16.496;2023-02-28T04:42:07;19.10;;;10.77;;
41179;SDS011;26913;48.240;16.496;2023-02-28T04:44:34;17.57;;;10.67;;
41179;SDS011;26913;48.240;16.496;2023-02-28T04:46:59;17.00;;;10.70;;
41179;SDS011;26913;48.240;16.496;2023-02-28T04:49:25;18.50;;;9.40;;
41179;SDS011;26913;48.240;16.496;2023-02-28T04:51:50;21.63;;;9.43;;
41179;SDS011;26913;48.240;16.496;2023-02-28T04:54:16;19.03;;;9.27;;
41179;SDS011;26913;48.240;16.496;2023-02-28T04:56:43;15.60;;;10.40;;
41179;SDS011;26913;48.240;16.496;2023-02-28T04:59:08;22.57;;;11.13;;
41179;SDS011;26913;48.240;16.496;2023-02-28T05:01:34;17.17;;;10.20;;
41179;SDS011;26913;48.240;16.496;2023-02-28T05:04:00;18.03;;;10.33;;
41179;SDS011;26913;48.240;16.496;2023-02-28T05:06:27;16.40;;;10.53;;
41179;SDS011;26913;48.240;16.496;2023-02-28T05:08:54;18.70;;;10.67;;
41179;SDS011;26913;48.240;16.496;2023-02-28T05:13:45;21.07;;;9.77;;
41179;SDS011;26913;48.240;16.496;2023-02-28T05:16:10;18.50;;;10.10;;
41179;SDS011;26913;48.240;16.496;2023-02-28T05:18:36;16.77;;;9.97;;
41179;SDS011;26913;48.240;16.496;2023-02-28T05:21:02;18.40;;;11.07;;
41179;SDS011;26913;48.240;16.496;2023-02-28T05:23:28;17.97;;;10.17;;
41179;SDS011;26913;48.240;16.496;2023-02-28T05:25:54;16.57;;;9.60;;
41179;SDS011;26913;48.240;16.496;2023-02-28T05:28:19;18.40;;;10.10;;
41179;SDS011;26913;48.240;16.496;2023-02-28T05:30:45;19.33;;;11.43;;
41179;SDS011;26913;48.240;16.496;2023-02-28T05:33:11;17.70;;;11.07;;
41179;SDS011;26913;48.240;16.496;2023-02-28T05:35:41;17.53;;;10.70;;
41179;SDS011;26913;48.240;16.496;2023-02-28T05:38:08;18.50;;;11.40;;
41179;SDS011;26913;48.240;16.496;2023-02-28T05:40:34;22.63;;;12.27;;
41179;SDS011;26913;48.240;16.496;2023-02-28T05:43:00;26.17;;;13.57;;
41179;SDS011;26913;48.240;16.496;2023-02-28T05:45:26;22.30;;;11.63;;
41179;SDS011;26913;48.240;16.496;2023-02-28T05:47:54;17.47;;;11.10;;
41179;SDS011;26913;48.240;16.496;2023-02-28T05:50:20;20.00;;;11.70;;
41179;SDS011;26913;48.240;16.496;2023-02-28T05:52:50;17.77;;;10.70;;
41179;SDS011;26913;48.240;16.496;2023-02-28T05:55:15;19.07;;;11.43;;
41179;SDS011;26913;48.240;16.496;2023-02-28T05:57:41;21.83;;;11.60;;
41179;SDS011;26913;48.240;16.496;2023-02-28T06:00:08;21.63;;;11.20;;
41179;SDS011;26913;48.240;16.496;2023-02-28T06:02:34;20.53;;;10.53;;
41179;SDS011;26913;48.240;16.496;2023-02-28T06:05:00;21.87;;;11.13;;
41179;SDS011;26913;48.240;16.496;2023-02-28T06:07:25;23.70;;;10.20;;
41179;SDS011;26913;48.240;16.496;2023-02-28T06:09:51;23.37;;;11.23;;
41179;SDS011;26913;48.240;16.496;2023-02-28T06:12:16;19.43;;;11.20;;
41179;SDS011;26913;48.240;16.496;2023-02-28T06:14:42;20.67;;;11.13;;
41179;SDS011;26913;48.240;16.496;2023-02-28T06:17:08;20.90;;;11.70;;
41179;SDS011;26913;48.240;16.496;2023-02-28T06:19:36;21.60;;;10.67;;
41179;SDS011;26913;48.240;16.496;2023-02-28T06:22:04;22.63;;;11.73;;
41179;SDS011;26913;48.240;16.496;2023-02-28T06:24:29;21.83;;;10.87;;
41179;SDS011;26913;48.240;16.496;2023-02-28T06:26:56;19.63;;;10.60;;
41179;SDS011;26913;48.240;16.496;2023-02-28T06:29:24;19.97;;;12.17;;
41179;SDS011;26913;48.240;16.496;2023-02-28T06:31:49;19.63;;;12.40;;
41179;SDS011;26913;48.240;16.496;2023-02-28T06:34:15;21.63;;;12.07;;
41179;SDS011;26913;48.240;16.496;2023-02-28T06:36:41;17.67;;;11.53;;
41179;SDS011;26913;48.240;16.496;2023-02-28T06:39:07;20.37;;;12.40;;
41179;SDS011;26913;48.240;16.496;2023-02-28T06:41:34;24.13;;;13.73;;
41179;SDS011;26913;48.240;16.496;2023-02-28T06:44:10;18.70;;;12.10;;
41179;SDS011;26913;48.240;16.496;2023-02-28T06:46:38;22.40;;;11.95;;
41179;SDS011;26913;48.240;16.496;2023-02-28T06:49:04;24.20;;;11.47;;
41179;SDS011;26913;48.240;16.496;2023-02-28T06:51:30;21.83;;;12.33;;
41179;SDS011;26913;48.240;16.496;2023-02-28T06:53:55;19.47;;;11.30;;
41179;SDS011;26913;48.240;16.496;2023-02-28T06:56:21;28.17;;;11.80;;
41179;SDS011;26913;48.240;16.496;2023-02-28T06:58:48;19.47;;;11.07;;
41179;SDS011;26913;48.240;16.496;2023-02-28T07:01:14;19.77;;;11.43;;
41179;SDS011;26913;48.240;16.496;2023-02-28T07:03:40;30.87;;;12.20;;
41179;SDS011;26913;48.240;16.496;2023-02-28T07:06:06;22.93;;;12.00;;
41179;SDS011;26913;48.240;16.496;2023-02-28T07:08:32;21.63;;;11.93;;
41179;SDS011;26913;48.240;16.496;2023-02-28T07:10:58;21.50;;;11.20;;
41179;SDS011;26913;48.240;16.496;2023-02-28T07:13:24;20.53;;;11.47;;
41179;SDS011;26913;48.240;16.496;2023-02-28T07:15:57;16.17;;;10.50;;
41179;SDS011;26913;48.240;16.496;2023-02-28T07:18:24;26.10;;;12.45;;
41179;SDS011;26913;48.240;16.496;2023-02-28T07:20:50;28.67;;;13.17;;
41179;SDS011;26913;48.240;16.496;2023-02-28T07:23:15;22.33;;;12.23;;
41179;SDS011;26913;48.240;16.496;2023-02-28T07:25:41;18.70;;;11.37;;
41179;SDS011;26913;48.240;16.496;2023-02-28T07:28:06;26.93;;;11.33;;
41179;SDS011;26913;48.240;16.496;2023-02-28T07:30:32;22.13;;;12.40;;
41179;SDS011;26913;48.240;16.496;2023-02-28T07:32:57;22.45;;;12.13;;
41179;SDS011;26913;48.240;16.496;2023-02-28T07:35:23;28.67;;;12.77;;
41179;SDS011;26913;48.240;16.496;2023-02-28T07:37:48;21.95;;;11.88;;
41179;SDS011;26913;48.240;16.496;2023-02-28T07:40:14;19.55;;;10.80;;
41179;SDS011;26913;48.240;16.496;2023-02-28T07:42:40;19.52;;;11.68;;
41179;SDS011;26913;48.240;16.496;2023-02-28T07:45:07;23.80;;;10.68;;
41179;SDS011;26913;48.240;16.496;2023-02-28T07:47:33;18.83;;;11.50;;
41179;SDS011;26913;48.240;16.496;2023-02-28T07:49:59;21.70;;;11.57;;
41179;SDS011;26913;48.240;16.496;2023-02-28T07:52:24;17.40;;;10.98;;
41179;SDS011;26913;48.240;16.496;2023-02-28T07:54:50;26.10;;;12.90;;
41179;SDS011;26913;48.240;16.496;2023-02-28T07:57:16;23.42;;;12.85;;
41179;SDS011;26913;48.240;16.496;2023-02-28T07:59:42;17.88;;;11.60;;
41179;SDS011;26913;48.240;16.496;2023-02-28T08:02:12;23.88;;;12.77;;
41179;SDS011;26913;48.240;16.496;2023-02-28T08:04:39;19.50;;;12.57;;
41179;SDS011;26913;48.240;16.496;2023-02-28T08:07:07;18.75;;;12.50;;
41179;SDS011;26913;48.240;16.496;2023-02-28T08:09:33;19.70;;;12.30;;
41179;SDS011;26913;48.240;16.496;2023-02-28T08:11:59;21.98;;;12.32;;
41179;SDS011;26913;48.240;16.496;2023-02-28T08:14:25;18.20;;;12.00;;
41179;SDS011;26913;48.240;16.496;2023-02-28T08:16:50;15.90;;;12.00;;
41179;SDS011;26913;48.240;16.496;2023-02-28T08:19:16;16.38;;;12.57;;
41179;SDS011;26913;48.240;16.496;2023-02-28T08:21:41;19.75;;;12.77;;
41179;SDS011;26913;48.240;16.496;2023-02-28T08:24:07;19.75;;;13.20;;
41179;SDS011;26913;48.240;16.496;2023-02-28T08:26:32;21.40;;;12.05;;
41179;SDS011;26913;48.240;16.496;2023-02-28T08:28:58;18.67;;;12.50;;
41179;SDS011;26913;48.240;16.496;2023-02-28T08:31:23;20.70;;;12.98;;
41179;SDS011;26913;48.240;16.496;2023-02-28T08:33:49;30.67;;;14.30;;
41179;SDS011;26913;48.240;16.496;2023-02-28T08:36:16;20.70;;;12.95;;
41179;SDS011;26913;48.240;16.496;2023-02-28T08:38:42;17.92;;;12.38;;
41179;SDS011;26913;48.240;16.496;2023-02-28T08:41:09;17.08;;;13.43;;
41179;SDS011;26913;48.240;16.496;2023-02-28T08:43:36;17.33;;;13.40;;
41179;SDS011;26913;48.240;16.496;2023-02-28T08:46:02;15.90;;;11.73;;
41179;SDS011;26913;48.240;16.496;2023-02-28T08:48:29;17.27;;;12.15;;
41179;SDS011;26913;48.240;16.496;2023-02-28T08:50:59;19.25;;;13.20;;
41179;SDS011;26913;48.240;16.496;2023-02-28T08:53:26;18.52;;;12.82;;
41179;SDS011;26913;48.240;16.496;2023-02-28T08:58:44;14.00;;;11.55;;
41179;SDS011;26913;48.240;16.496;2023-02-28T09:01:15;18.88;;;12.63;;
41179;SDS011;26913;48.240;16.496;2023-02-28T09:03:41;17.75;;;11.60;;
41179;SDS011;26913;48.240;16.496;2023-02-28T09:06:08;16.50;;;12.38;;
41179;SDS011;26913;48.240;16.496;2023-02-28T09:08:34;15.13;;;12.18;;
41179;SDS011;26913;48.240;16.496;2023-02-28T09:11:00;14.77;;;11.55;;
41179;SDS011;26913;48.240;16.496;2023-02-28T09:13:27;15.23;;;11.50;;
41179;SDS011;26913;48.240;16.496;2023-02-28T09:15:53;13.70;;;11.38;;
41179;SDS011;26913;48.240;16.496;2023-02-28T09:18:19;13.73;;;12.20;;
41179;SDS011;26913;48.240;16.496;2023-02-28T09:20:45;14.20;;;11.52;;
41179;SDS011;26913;48.240;16.496;2023-02-28T09:23:11;14.13;;;11.73;;
41179;SDS011;26913;48.240;16.496;2023-02-28T09:25:45;17.10;;;13.30;;
41179;SDS011;26913;48.240;16.496;2023-02-28T09:28:12;17.73;;;13.50;;
41179;SDS011;26913;48.240;16.496;2023-02-28T09:30:40;15.35;;;12.85;;
41179;SDS011;26913;48.240;16.496;2023-02-28T09:33:06;17.67;;;12.40;;
41179;SDS011;26913;48.240;16.496;2023-02-28T09:35:32;18.38;;;12.88;;
41179;SDS011;26913;48.240;16.496;2023-02-28T09:37:57;17.45;;;14.18;;
41179;SDS011;26913;48.240;16.496;2023-02-28T09:40:23;15.70;;;12.43;;
41179;SDS011;26913;48.240;16.496;2023-02-28T09:42:51;15.50;;;11.48;;
41179;SDS011;26913;48.240;16.496;2023-02-28T09:45:26;14.32;;;12.52;;
41179;SDS011;26913;48.240;16.496;2023-02-28T09:47:53;27.05;;;14.60;;
41179;SDS011;26913;48.240;16.496;2023-02-28T09:52:54;21.98;;;13.95;;
41179;SDS011;26913;48.240;16.496;2023-02-28T09:55:33;17.45;;;12.65;;
41179;SDS011;26913;48.240;16.496;2023-02-28T09:58:04;17.75;;;13.73;;
41179;SDS011;26913;48.240;16.496;2023-02-28T10:00:32;18.63;;;13.27;;
41179;SDS011;26913;48.240;16.496;2023-02-28T10:05:38;15.93;;;12.15;;
41179;SDS011;26913;48.240;16.496;2023-02-28T10:08:15;18.05;;;13.60;;
41179;SDS011;26913;48.240;16.496;2023-02-28T10:10:47;16.15;;;12.90;;
41179;SDS011;26913;48.240;16.496;2023-02-28T10:13:29;15.38;;;13.38;;
41179;SDS011;26913;48.240;16.496;2023-02-28T10:16:01;15.60;;;12.48;;
41179;SDS011;26913;48.240;16.496;2023-02-28T10:21:31;17.50;;;12.93;;
41179;SDS011;26913;48.240;16.496;2023-02-28T10:24:05;14.00;;;11.68;;
41179;SDS011;26913;48.240;16.496;2023-02-28T10:26:39;12.60;;;11.15;;
41179;SDS011;26913;48.240;16.496;2023-02-28T10:29:09;14.27;;;11.00;;
41179;SDS011;26913;48.240;16.496;2023-02-28T10:31:35;16.67;;;12.85;;
41179;SDS011;26913;48.240;16.496;2023-02-28T10:34:00;14.20;;;10.95;;
41179;SDS011;26913;48.240;16.496;2023-02-28T10:36:27;17.35;;;12.43;;
41179;SDS011;26913;48.240;16.496;2023-02-28T10:38:53;14.65;;;11.57;;
41179;SDS011;26913;48.240;16.496;2023-02-28T10:46:57;14.00;;;10.77;;
41179;SDS011;26913;48.240;16.496;2023-02-28T10:49:26;13.20;;;10.50;;
41179;SDS011;26913;48.240;16.496;2023-02-28T10:51:54;11.40;;;9.88;;
41179;SDS011;26913;48.240;16.496;2023-02-28T10:54:30;12.95;;;10.77;;
41179;SDS011;26913;48.240;16.496;2023-02-28T10:57:07;14.80;;;11.15;;
41179;SDS011;26913;48.240;16.496;2023-02-28T10:59:43;12.93;;;10.82;;
41179;SDS011;26913;48.240;16.496;2023-02-28T11:04:54;12.52;;;11.05;;
41179;SDS011;26913;48.240;16.496;2023-02-28T11:07:21;13.93;;;11.30;;
41179;SDS011;26913;48.240;16.496;2023-02-28T11:09:48;14.00;;;11.07;;
41179;SDS011;26913;48.240;16.496;2023-02-28T11:17:53;19.38;;;11.68;;
41179;SDS011;26913;48.240;16.496;2023-02-28T11:20:47;12.23;;;10.68;;
41179;SDS011;26913;48.240;16.496;2023-02-28T11:23:14;11.70;;;10.50;;
41179;SDS011;26913;48.240;16.496;2023-02-28T11:25:40;13.30;;;10.70;;
41179;SDS011;26913;48.240;16.496;2023-02-28T11:36:20;13.55;;;12.02;;
41179;SDS011;26913;48.240;16.496;2023-02-28T11:38:53;23.90;;;13.50;;
41179;SDS011;26913;48.240;16.496;2023-02-28T11:44:26;15.88;;;12.63;;
41179;SDS011;26913;48.240;16.496;2023-02-28T11:49:35;12.68;;;11.38;;
41179;SDS011;26913;48.240;16.496;2023-02-28T11:54:54;13.38;;;11.23;;
41179;SDS011;26913;48.240;16.496;2023-02-28T12:00:27;28.27;;;11.52;;
41179;SDS011;26913;48.240;16.496;2023-02-28T12:06:36;14.27;;;10.77;;
41179;SDS011;26913;48.240;16.496;2023-02-28T12:17:15;11.98;;;10.70;;
41179;SDS011;26913;48.240;16.496;2023-02-28T12:28:12;12.23;;;10.30;;
41179;SDS011;26913;48.240;16.496;2023-02-28T12:30:46;12.90;;;10.35;;
41179;SDS011;26913;48.240;16.496;2023-02-28T12:33:20;11.95;;;10.20;;
41179;SDS011;26913;48.240;16.496;2023-02-28T12:35:55;17.95;;;9.98;;
41179;SDS011;26913;48.240;16.496;2023-02-28T12:38:23;9.88;;;7.45;;
41179;SDS011;26913;48.240;16.496;2023-02-28T12:41:00;11.20;;;7.28;;
41179;SDS011;26913;48.240;16.496;2023-02-28T12:43:30;14.98;;;9.60;;
41179;SDS011;26913;48.240;16.496;2023-02-28T12:46:00;10.60;;;9.50;;
41179;SDS011;26913;48.240;16.496;2023-02-28T12:48:31;11.77;;;9.35;;
41179;SDS011;26913;48.240;16.496;2023-02-28T12:56:21;10.52;;;9.18;;
41179;SDS011;26913;48.240;16.496;2023-02-28T12:59:01;12.13;;;9.38;;
41179;SDS011;26913;48.240;16.496;2023-02-28T13:10:01;10.07;;;8.88;;
41179;SDS011;26913;48.240;16.496;2023-02-28T13:12:29;11.55;;;9.55;;
41179;SDS011;26913;48.240;16.496;2023-02-28T13:15:28;9.73;;;8.57;;
41179;SDS011;26913;48.240;16.496;2023-02-28T13:17:56;9.77;;;8.13;;
41179;SDS011;26913;48.240;16.496;2023-02-28T13:20:24;10.63;;;8.05;;
41179;SDS011;26913;48.240;16.496;2023-02-28T13:22:52;10.93;;;8.02;;
41179;SDS011;26913;48.240;16.496;2023-02-28T13:27:50;9.20;;;8.30;;
41179;SDS011;26913;48.240;16.496;2023-02-28T13:33:34;11.60;;;8.60;;
41179;SDS011;26913;48.240;16.496;2023-02-28T13:46:31;11.00;;;9.07;;
41179;SDS011;26913;48.240;16.496;2023-02-28T13:52:38;9.43;;;8.52;;
41179;SDS011;26913;48.240;16.496;2023-02-28T14:00:13;12.63;;;9.07;;
41179;SDS011;26913;48.240;16.496;2023-02-28T14:05:39;12.50;;;8.65;;
41179;SDS011;26913;48.240;16.496;2023-02-28T14:08:08;13.65;;;9.75;;
41179;SDS011;26913;48.240;16.496;2023-02-28T14:15:44;12.18;;;9.73;;
41179;SDS011;26913;48.240;16.496;2023-02-28T14:18:20;8.80;;;7.90;;
41179;SDS011;26913;48.240;16.496;2023-02-28T14:21:01;9.27;;;8.40;;
41179;SDS011;26913;48.240;16.496;2023-02-28T14:32:01;8.25;;;7.43;;
41179;SDS011;26913;48.240;16.496;2023-02-28T14:34:35;12.25;;;7.88;;
41179;SDS011;26913;48.240;16.496;2023-02-28T14:37:02;10.52;;;8.27;;
41179;SDS011;26913;48.240;16.496;2023-02-28T14:39:28;11.70;;;8.57;;
41179;SDS011;26913;48.240;16.496;2023-02-28T14:41:56;8.80;;;7.90;;
41179;SDS011;26913;48.240;16.496;2023-02-28T14:44:28;11.13;;;8.32;;
41179;SDS011;26913;48.240;16.496;2023-02-28T14:46:54;8.20;;;6.95;;
41179;SDS011;26913;48.240;16.496;2023-02-28T14:49:32;8.60;;;7.78;;
41179;SDS011;26913;48.240;16.496;2023-02-28T14:52:05;10.45;;;9.35;;
41179;SDS011;26913;48.240;16.496;2023-02-28T14:54:41;10.05;;;8.45;;
41179;SDS011;26913;48.240;16.496;2023-02-28T14:57:06;10.50;;;8.23;;
41179;SDS011;26913;48.240;16.496;2023-02-28T14:59:37;9.98;;;8.00;;
41179;SDS011;26913;48.240;16.496;2023-02-28T15:02:16;9.15;;;8.13;;
41179;SDS011;26913;48.240;16.496;2023-02-28T15:04:59;10.10;;;7.65;;
41179;SDS011;26913;48.240;16.496;2023-02-28T15:07:26;9.23;;;7.65;;
41179;SDS011;26913;48.240;16.496;2023-02-28T15:12:38;14.75;;;8.02;;
41179;SDS011;26913;48.240;16.496;2023-02-28T15:15:05;13.30;;;8.38;;
41179;SDS011;26913;48.240;16.496;2023-02-28T15:17:32;9.63;;;7.25;;
41179;SDS011;26913;48.240;16.496;2023-02-28T15:19:59;9.02;;;8.15;;
41179;SDS011;26913;48.240;16.496;2023-02-28T15:22:29;17.50;;;9.38;;
41179;SDS011;26913;48.240;16.496;2023-02-28T15:24:59;12.02;;;8.05;;
41179;SDS011;26913;48.240;16.496;2023-02-28T15:27:25;9.77;;;8.48;;
41179;SDS011;26913;48.240;16.496;2023-02-28T15:29:56;9.00;;;8.05;;
41179;SDS011;26913;48.240;16.496;2023-02-28T15:34:52;10.60;;;9.60;;
41179;SDS011;26913;48.240;16.496;2023-02-28T15:43:06;11.50;;;10.07;;
41179;SDS011;26913;48.240;16.496;2023-02-28T15:45:49;14.73;;;10.13;;
41179;SDS011;26913;48.240;16.496;2023-02-28T15:48:22;13.38;;;9.32;;
41179;SDS011;26913;48.240;16.496;2023-02-28T15:50:51;10.63;;;9.45;;
41179;SDS011;26913;48.240;16.496;2023-02-28T15:59:00;17.10;;;9.88;;
41179;SDS011;26913;48.240;16.496;2023-02-28T16:01:28;10.23;;;9.13;;
41179;SDS011;26913;48.240;16.496;2023-02-28T16:03:57;13.35;;;8.73;;
41179;SDS011;26913;48.240;16.496;2023-02-28T16:09:00;14.98;;;9.95;;
41179;SDS011;26913;48.240;16.496;2023-02-28T16:11:26;13.75;;;9.10;;
41179;SDS011;26913;48.240;16.496;2023-02-28T16:13:51;12.55;;;9.02;;
41179;SDS011;26913;48.240;16.496;2023-02-28T16:16:17;15.95;;;9.98;;
41179;SDS011;26913;48.240;16.496;2023-02-28T16:18:44;10.88;;;9.02;;
41179;SDS011;26913;48.240;16.496;2023-02-28T16:21:10;11.40;;;9.63;;
41179;SDS011;26913;48.240;16.496;2023-02-28T16:23:35;15.48;;;12.02;;
41179;SDS011;26913;48.240;16.496;2023-02-28T16:26:02;13.35;;;10.32;;
41179;SDS011;26913;48.240;16.496;2023-02-28T16:28:29;13.40;;;10.23;;
41179;SDS011;26913;48.240;16.496;2023-02-28T16:30:57;16.42;;;9.85;;
41179;SDS011;26913;48.240;16.496;2023-02-28T16:33:24;14.27;;;10.27;;
41179;SDS011;26913;48.240;16.496;2023-02-28T16:35:50;12.90;;;9.40;;
41179;SDS011;26913;48.240;16.496;2023-02-28T16:38:16;10.88;;;9.43;;
41179;SDS011;26913;48.240;16.496;2023-02-28T16:40:42;15.40;;;10.50;;
41179;SDS011;26913;48.240;16.496;2023-02-28T16:43:10;23.50;;;11.63;;
41179;SDS011;26913;48.240;16.496;2023-02-28T16:45:41;18.70;;;11.75;;
41179;SDS011;26913;48.240;16.496;2023-02-28T16:48:08;23.17;;;12.40;;
41179;SDS011;26913;48.240;16.496;2023-02-28T16:50:38;14.30;;;10.25;;
41179;SDS011;26913;48.240;16.496;2023-02-28T16:53:03;23.80;;;10.65;;
41179;SDS011;26913;48.240;16.496;2023-02-28T16:55:29;17.38;;;11.48;;
41179;SDS011;26913;48.240;16.496;2023-02-28T16:57:59;18.27;;;11.07;;
41179;SDS011;26913;48.240;16.496;2023-02-28T17:00:26;16.50;;;12.30;;
41179;SDS011;26913;48.240;16.496;2023-02-28T17:02:53;21.25;;;14.23;;
41179;SDS011;26913;48.240;16.496;2023-02-28T17:05:19;35.92;;;18.02;;
41179;SDS011;26913;48.240;16.496;2023-02-28T17:07:45;18.08;;;11.70;;
41179;SDS011;26913;48.240;16.496;2023-02-28T17:10:22;21.17;;;12.00;;
41179;SDS011;26913;48.240;16.496;2023-02-28T17:12:49;24.83;;;12.75;;
41179;SDS011;26913;48.240;16.496;2023-02-28T17:15:16;13.88;;;11.32;;
41179;SDS011;26913;48.240;16.496;2023-02-28T17:17:43;19.98;;;11.90;;
41179;SDS011;26913;48.240;16.496;2023-02-28T17:20:13;20.60;;;12.82;;